sensor_id;sensor_type;location;lat;lon;timestamp;pressure;altitude;pressure_sealevel;temperature;humidity
22582;BME280;47125;48.542;9.052;2023-05-03T00:00:56;96771.47;;;12.05;68.52
22582;BME280;47125;48.542;9.052;2023-05-03T00:11:01;96773.56;;;12.03;68.68
22582;BME280;47125;48.542;9.052;2023-05-03T00:21:05;96773.03;;;11.83;69.28
22582;BME280;47125;48.542;9.052;2023-05-03T00:31:08;96773.84;;;11.83;69.92
22582;BME280;47125;48.542;9.052;2023-05-03T00:41:12;96771.69;;;11.74;70.04
22582;BME280;47125;48.542;9.052;2023-05-03T00:51:15;96753.41;;;11.71;70.44
22582;BME280;47125;48.542;9.052;2023-05-03T01:01:20;96761.72;;;11.63;70.76
22582;BME280;47125;48.542;9.052;2023-05-03T01:11:24;96766.34;;;11.55;70.99
22582;BME280;47125;48.542;9.052;2023-05-03T01:21:29;96750.78;;;11.64;70.84
22582;BME280;47125;48.542;9.052;2023-05-03T01:31:36;96753.56;;;11.39;71.64
22582;BME280;47125;48.542;9.052;2023-05-03T01:41:40;96743.53;;;11.35;71.41
22582;BME280;47125;48.542;9.052;2023-05-03T01:51:45;96737.81;;;11.31;71.28
22582;BME280;47125;48.542;9.052;2023-05-03T02:01:48;96742.91;;;11.15;71.90
22582;BME280;47125;48.542;9.052;2023-05-03T02:11:52;96735.19;;;11.06;72.65
22582;BME280;47125;48.542;9.052;2023-05-03T02:21:55;96734.09;;;10.96;72.54
22582;BME280;47125;48.542;9.052;2023-05-03T02:31:59;96739.50;;;10.89;72.37
22582;BME280;47125;48.542;9.052;2023-05-03T02:42:01;96735.03;;;10.83;72.37
22582;BME280;47125;48.542;9.052;2023-05-03T02:52:05;96722.22;;;10.67;73.06
22582;BME280;47125;48.542;9.052;2023-05-03T03:02:08;96733.63;;;10.56;72.86
22582;BME280;47125;48.542;9.052;2023-05-03T03:12:12;96727.53;;;10.49;73.24
22582;BME280;47125;48.542;9.052;2023-05-03T03:22:14;96723.19;;;10.30;73.22
22582;BME280;47125;48.542;9.052;2023-05-03T03:32:18;96718.00;;;10.35;73.29
22582;BME280;47125;48.542;9.052;2023-05-03T03:42:21;96722.13;;;10.31;73.88
22582;BME280;47125;48.542;9.052;2023-05-03T03:52:27;96727.78;;;10.16;73.85
22582;BME280;47125;48.542;9.052;2023-05-03T04:02:29;96726.38;;;10.14;74.15
22582;BME280;47125;48.542;9.052;2023-05-03T04:12:33;96728.41;;;10.12;74.83
22582;BME280;47125;48.542;9.052;2023-05-03T04:22:36;96747.38;;;10.35;75.31
22582;BME280;47125;48.542;9.052;2023-05-03T04:32:41;96759.63;;;10.42;76.62
22582;BME280;47125;48.542;9.052;2023-05-03T04:42:43;96779.03;;;10.56;77.01
22582;BME280;47125;48.542;9.052;2023-05-03T04:52:47;96781.81;;;10.68;77.21
22582;BME280;47125;48.542;9.052;2023-05-03T05:02:50;96780.91;;;10.80;76.87
22582;BME280;47125;48.542;9.052;2023-05-03T05:12:53;96784.53;;;10.86;77.36
22582;BME280;47125;48.542;9.052;2023-05-03T05:22:56;96794.50;;;10.97;76.46
22582;BME280;47125;48.542;9.052;2023-05-03T05:33:00;96795.78;;;10.94;76.42
22582;BME280;47125;48.542;9.052;2023-05-03T05:43:03;96801.69;;;11.21;76.48
22582;BME280;47125;48.542;9.052;2023-05-03T05:53:07;96811.34;;;11.22;77.18
22582;BME280;47125;48.542;9.052;2023-05-03T06:03:10;96797.84;;;11.35;76.23
22582;BME280;47125;48.542;9.052;2023-05-03T06:13:14;96806.16;;;11.45;76.52
22582;BME280;47125;48.542;9.052;2023-05-03T06:23:16;96799.63;;;11.41;76.97
22582;BME280;47125;48.542;9.052;2023-05-03T06:33:20;96794.50;;;11.58;76.23
22582;BME280;47125;48.542;9.052;2023-05-03T06:43:22;96803.03;;;11.67;76.58
22582;BME280;47125;48.542;9.052;2023-05-03T06:53:26;96806.53;;;11.85;76.00
22582;BME280;47125;48.542;9.052;2023-05-03T07:03:29;96814.00;;;11.83;75.98
22582;BME280;47125;48.542;9.052;2023-05-03T07:13:33;96798.22;;;11.75;76.32
22582;BME280;47125;48.542;9.052;2023-05-03T07:23:35;96790.22;;;12.05;75.99
22582;BME280;47125;48.542;9.052;2023-05-03T07:33:39;96780.63;;;12.27;75.55
22582;BME280;47125;48.542;9.052;2023-05-03T07:43:42;96790.72;;;12.43;76.01
22582;BME280;47125;48.542;9.052;2023-05-03T07:53:47;96786.31;;;12.60;74.06
22582;BME280;47125;48.542;9.052;2023-05-03T08:03:49;96764.91;;;12.84;73.88
22582;BME280;47125;48.542;9.052;2023-05-03T08:13:54;96769.94;;;13.38;72.96
22582;BME280;47125;48.542;9.052;2023-05-03T08:23:56;96777.16;;;13.38;71.43
22582;BME280;47125;48.542;9.052;2023-05-03T08:34:00;96768.28;;;13.37;70.72
22582;BME280;47125;48.542;9.052;2023-05-03T08:44:04;96768.47;;;13.70;70.47
22582;BME280;47125;48.542;9.052;2023-05-03T08:54:10;96769.72;;;13.79;70.52
22582;BME280;47125;48.542;9.052;2023-05-03T09:04:12;96773.75;;;14.22;70.89
22582;BME280;47125;48.542;9.052;2023-05-03T09:14:17;96776.69;;;14.49;68.84
22582;BME280;47125;48.542;9.052;2023-05-03T09:24:21;96784.38;;;14.90;68.61
22582;BME280;47125;48.542;9.052;2023-05-03T09:34:25;96774.66;;;15.22;66.23
22582;BME280;47125;48.542;9.052;2023-05-03T09:44:40;96768.91;;;15.35;66.54
22582;BME280;47125;48.542;9.052;2023-05-03T09:54:44;96753.69;;;16.06;65.25
22582;BME280;47125;48.542;9.052;2023-05-03T10:04:49;96748.59;;;16.36;61.79
22582;BME280;47125;48.542;9.052;2023-05-03T10:14:53;96758.72;;;16.78;60.63
22582;BME280;47125;48.542;9.052;2023-05-03T10:25:06;96734.78;;;17.28;58.29
22582;BME280;47125;48.542;9.052;2023-05-03T10:35:11;96737.38;;;17.13;56.69
22582;BME280;47125;48.542;9.052;2023-05-03T10:45:21;96728.50;;;17.59;55.51
22582;BME280;47125;48.542;9.052;2023-05-03T10:55:25;96719.75;;;17.99;52.98
22582;BME280;47125;48.542;9.052;2023-05-03T11:05:28;96724.09;;;18.05;50.79
22582;BME280;47125;48.542;9.052;2023-05-03T11:15:35;96710.34;;;18.32;50.96
22582;BME280;47125;48.542;9.052;2023-05-03T11:25:37;96701.75;;;18.55;50.92
22582;BME280;47125;48.542;9.052;2023-05-03T11:35:41;96689.81;;;18.97;49.61
22582;BME280;47125;48.542;9.052;2023-05-03T11:45:44;96681.88;;;19.41;49.87
22582;BME280;47125;48.542;9.052;2023-05-03T11:55:50;96687.41;;;19.85;48.24
22582;BME280;47125;48.542;9.052;2023-05-03T12:05:54;96687.31;;;20.49;46.99
22582;BME280;47125;48.542;9.052;2023-05-03T12:15:59;96670.09;;;20.19;46.12
22582;BME280;47125;48.542;9.052;2023-05-03T12:26:13;96668.31;;;20.44;47.20
22582;BME280;47125;48.542;9.052;2023-05-03T12:36:20;96661.56;;;21.04;44.22
22582;BME280;47125;48.542;9.052;2023-05-03T12:46:26;96666.56;;;21.91;44.50
22582;BME280;47125;48.542;9.052;2023-05-03T12:56:36;96659.03;;;21.83;41.25
22582;BME280;47125;48.542;9.052;2023-05-03T13:06:41;96632.81;;;22.81;39.42
22582;BME280;47125;48.542;9.052;2023-05-03T13:16:46;96634.78;;;22.43;40.29
22582;BME280;47125;48.542;9.052;2023-05-03T13:26:49;96624.06;;;22.97;38.86
22582;BME280;47125;48.542;9.052;2023-05-03T13:36:53;96611.34;;;22.79;39.04
22582;BME280;47125;48.542;9.052;2023-05-03T13:46:56;96617.94;;;23.74;35.36
22582;BME280;47125;48.542;9.052;2023-05-03T13:56:59;96604.72;;;23.67;37.90
22582;BME280;47125;48.542;9.052;2023-05-03T14:07:02;96589.56;;;23.07;34.83
22582;BME280;47125;48.542;9.052;2023-05-03T14:17:06;96581.59;;;22.64;35.42
22582;BME280;47125;48.542;9.052;2023-05-03T14:27:09;96581.47;;;23.70;34.77
22582;BME280;47125;48.542;9.052;2023-05-03T14:37:12;96573.72;;;22.95;36.07
22582;BME280;47125;48.542;9.052;2023-05-03T14:47:15;96556.75;;;23.52;37.96
22582;BME280;47125;48.542;9.052;2023-05-03T14:57:19;96553.63;;;21.38;38.86
22582;BME280;47125;48.542;9.052;2023-05-03T15:07:21;96546.16;;;22.96;38.15
22582;BME280;47125;48.542;9.052;2023-05-03T15:17:25;96546.13;;;22.69;37.14
22582;BME280;47125;48.542;9.052;2023-05-03T15:27:28;96553.75;;;22.99;35.65
22582;BME280;47125;48.542;9.052;2023-05-03T15:37:33;96550.13;;;22.58;37.51
22582;BME280;47125;48.542;9.052;2023-05-03T15:47:37;96546.84;;;22.29;36.33
22582;BME280;47125;48.542;9.052;2023-05-03T15:57:41;96535.03;;;21.82;37.16
22582;BME280;47125;48.542;9.052;2023-05-03T16:07:43;96542.47;;;21.58;38.37
22582;BME280;47125;48.542;9.052;2023-05-03T16:17:48;96525.59;;;21.19;36.27
22582;BME280;47125;48.542;9.052;2023-05-03T16:27:51;96528.63;;;21.17;37.84
22582;BME280;47125;48.542;9.052;2023-05-03T16:37:55;96519.00;;;21.25;38.44
22582;BME280;47125;48.542;9.052;2023-05-03T16:47:57;96514.97;;;20.51;39.48
22582;BME280;47125;48.542;9.052;2023-05-03T16:58:04;96517.75;;;20.41;38.47
22582;BME280;47125;48.542;9.052;2023-05-03T17:08:07;96504.06;;;19.94;40.77
22582;BME280;47125;48.542;9.052;2023-05-03T17:18:11;96509.59;;;20.12;39.75
22582;BME280;47125;48.542;9.052;2023-05-03T17:28:13;96498.41;;;19.90;41.29
22582;BME280;47125;48.542;9.052;2023-05-03T17:38:17;96502.16;;;19.60;41.39
22582;BME280;47125;48.542;9.052;2023-05-03T17:48:20;96503.28;;;19.54;42.12
22582;BME280;47125;48.542;9.052;2023-05-03T17:58:23;96510.72;;;19.29;42.79
22582;BME280;47125;48.542;9.052;2023-05-03T18:08:27;96514.59;;;19.12;45.04
22582;BME280;47125;48.542;9.052;2023-05-03T18:18:30;96522.03;;;18.82;45.55
22582;BME280;47125;48.542;9.052;2023-05-03T18:28:33;96516.94;;;18.60;46.07
22582;BME280;47125;48.542;9.052;2023-05-03T18:38:37;96530.75;;;18.43;47.25
22582;BME280;47125;48.542;9.052;2023-05-03T18:48:39;96537.25;;;18.37;47.07
22582;BME280;47125;48.542;9.052;2023-05-03T18:58:43;96542.34;;;18.74;46.60
22582;BME280;47125;48.542;9.052;2023-05-03T19:08:47;96545.59;;;18.66;45.48
22582;BME280;47125;48.542;9.052;2023-05-03T19:18:51;96542.59;;;18.78;45.42
22582;BME280;47125;48.542;9.052;2023-05-03T19:28:56;96546.75;;;18.50;45.23
22582;BME280;47125;48.542;9.052;2023-05-03T19:38:59;96549.44;;;18.50;46.39
22582;BME280;47125;48.542;9.052;2023-05-03T19:49:03;96551.88;;;18.51;46.48
22582;BME280;47125;48.542;9.052;2023-05-03T19:59:07;96550.78;;;18.37;46.77
22582;BME280;47125;48.542;9.052;2023-05-03T20:09:10;96558.88;;;18.42;46.40
22582;BME280;47125;48.542;9.052;2023-05-03T20:19:14;96556.19;;;17.92;47.95
22582;BME280;47125;48.542;9.052;2023-05-03T20:29:16;96556.09;;;17.46;48.23
22582;BME280;47125;48.542;9.052;2023-05-03T20:39:20;96556.22;;;16.99;49.58
22582;BME280;47125;48.542;9.052;2023-05-03T20:49:23;96553.09;;;16.66;51.17
22582;BME280;47125;48.542;9.052;2023-05-03T20:59:28;96557.44;;;16.35;51.67
22582;BME280;47125;48.542;9.052;2023-05-03T21:09:31;96551.72;;;16.21;52.44
22582;BME280;47125;48.542;9.052;2023-05-03T21:19:35;96549.72;;;16.07;52.25
22582;BME280;47125;48.542;9.052;2023-05-03T21:29:37;96533.09;;;15.83;52.97
22582;BME280;47125;48.542;9.052;2023-05-03T21:39:41;96531.38;;;15.72;53.49
22582;BME280;47125;48.542;9.052;2023-05-03T21:50:04;96523.66;;;15.54;53.71
22582;BME280;47125;48.542;9.052;2023-05-03T22:00:10;96519.19;;;15.37;54.92
22582;BME280;47125;48.542;9.052;2023-05-03T22:10:18;96510.13;;;15.22;55.03
22582;BME280;47125;48.542;9.052;2023-05-03T22:20:22;96521.97;;;14.99;55.26
22582;BME280;47125;48.542;9.052;2023-05-03T22:30:24;96510.25;;;14.83;55.59
22582;BME280;47125;48.542;9.052;2023-05-03T22:40:28;96512.19;;;14.88;55.62
22582;BME280;47125;48.542;9.052;2023-05-03T22:50:31;96505.16;;;14.87;55.09
22582;BME280;47125;48.542;9.052;2023-05-03T23:00:35;96492.00;;;14.64;55.91
22582;BME280;47125;48.542;9.052;2023-05-03T23:10:37;96488.19;;;14.60;55.63
22582;BME280;47125;48.542;9.052;2023-05-03T23:20:41;96477.34;;;14.55;56.09
22582;BME280;47125;48.542;9.052;2023-05-03T23:30:43;96483.44;;;14.28;56.31
22582;BME280;47125;48.542;9.052;2023-05-03T23:40:48;96484.94;;;14.19;57.17
22582;BME280;47125;48.542;9.052;2023-05-03T23:50:50;96476.50;;;14.11;57.29
